KMTJ/MTJ METAR and TAF weather

Enter ICAO airport designator
Station Type Date Time Source
KMTJ METAR 2021/01/27 12:53 UTC NOAA

KMTJ 271253Z AUTO 13007KT 10SM CLR M14/M19 A3024 RMK AO2 SLP289 T11441189


Station Type Date Time Source
KMTJ Decoded METAR 2021/01/27 12:53 UTC NOAA

MONTROSE REGIONAL AIRPORT, CO, United States (KMTJ) 38-30N 107-54W 1750M
Jan 27, 2021 - 07:53 AM EST / 2021.01.27 1253 UTC
Wind: from the SE (130 degrees) at 8 MPH (7 KT):0
Visibility: 10 mile(s):0
Sky conditions: clear
Temperature: 6.1 F (-14.4 C)
Windchill: -5 F (-21 C):2
Dew Point: -2.0 F (-18.9 C)
Relative Humidity: 68%
Pressure (altimeter): 30.24 in. Hg (1024 hPa)
ob: KMTJ 271253Z AUTO 13007KT 10SM CLR M14/M19 A3024 RMK AO2 SLP289 T11441189
cycle: 13

Station Type Date Time Source
KMTJ TAF 2021/01/27 12:27 UTC NOAA

TAF KMTJ 271125Z 2712/2812 14010KT P6SM SKC
FM271600 16005KT P6SM SCT180
FM271900 29005KT P6SM SCT080 BKN100
FM280000 15006KT P6SM BKN080

Example: see airport list